Terminal Aerodrome Forecast
Issued by NWS Pocatello, ID

Home | Current Version | Previous Version | Text Only | Print | Product List | Glossary On
Versions: 1 2 3 4 5 6 7 8 9 10 11 12 13 14 15
000
FTUS45 KPIH 260520
TAFPIH
TAF
KPIH 260520Z 2606/2706 16007KT P6SM FEW080 BKN110
     FM261100 26011KT 6SM -RA SCT020 BKN030
     FM261900 30011KT P6SM -SHRA VCTS SCT020 BKN040CB
     FM270200 VRB06KT P6SM SCT040 BKN070=

USA.gov is the U.S. government's official web portal to all federal, state and local government web resources and services.